Time;durP1;ratioP1;P1;durP2;ratioP2;P2;SDS_P1;SDS_P2;PMS_P1;PMS_P2;Temp;Humidity;BMP_temperature;BMP_pressure;BME280_temperature;BME280_humidity;BME280_pressure;Samples;Min_cycle;Max_cycle;Signal;HPM_P1;HPM_P2
2022/10/24 00:00:16;;;;;;;0.10;0.10;;;13.30;99.90;;;;;;5005543;28;20294;-80
2022/10/24 00:02:42;;;;;;;0.10;0.10;;;13.30;99.90;;;;;;5004615;28;20177;-79
2022/10/24 00:05:10;;;;;;;0.10;0.10;;;13.20;99.90;;;;;;4982502;28;20200;-80
2022/10/24 00:07:36;;;;;;;0.10;0.10;;;13.30;99.90;;;;;;4999275;28;20461;-80
2022/10/24 00:10:01;;;;;;;0.10;0.10;;;13.30;99.90;;;;;;5006195;28;20451;-81
2022/10/24 00:12:27;;;;;;;0.10;0.10;;;13.30;99.90;;;;;;5003203;28;20262;-80
2022/10/24 00:14:52;;;;;;;0.10;0.10;;;13.30;99.90;;;;;;5004878;28;20632;-80
2022/10/24 00:17:18;;;;;;;0.10;0.10;;;13.30;99.90;;;;;;4999668;28;20187;-82
2022/10/24 00:19:43;;;;;;;0.10;0.10;;;13.30;99.90;;;;;;5001124;28;20216;-80
2022/10/24 00:22:09;;;;;;;0.10;0.10;;;13.30;99.90;;;;;;5003549;28;20189;-80
2022/10/24 00:24:35;;;;;;;0.10;0.10;;;13.30;99.90;;;;;;5009793;28;20532;-79
2022/10/24 00:27:00;;;;;;;0.10;0.10;;;13.40;99.90;;;;;;5003940;28;20241;-79
2022/10/24 00:29:26;;;;;;;0.10;0.10;;;13.30;99.90;;;;;;5007736;28;20206;-80
2022/10/24 00:31:51;;;;;;;0.10;0.10;;;13.30;99.90;;;;;;5005958;28;20195;-79
2022/10/24 00:34:17;;;;;;;0.10;0.10;;;13.30;99.90;;;;;;4986384;28;20195;-80
2022/10/24 00:36:42;;;;;;;0.10;0.10;;;13.30;99.90;;;;;;4988515;28;20276;-80
2022/10/24 00:39:09;;;;;;;0.10;0.10;;;13.40;99.90;;;;;;5000579;28;20806;-80
2022/10/24 00:41:37;;;;;;;0.10;0.10;;;13.30;99.90;;;;;;5006046;28;20202;-80
2022/10/24 00:44:23;;;;;;;0.10;0.10;;;13.30;99.90;;;;;;4995400;28;20884;-80
2022/10/24 00:47:03;;;;;;;0.20;0.20;;;13.40;99.90;;;;;;4996456;28;20450;-80
2022/10/24 00:49:59;;;;;;;0.20;0.20;;;13.40;99.90;;;;;;5011006;28;20445;-80
2022/10/24 00:52:29;;;;;;;0.10;0.10;;;13.50;99.90;;;;;;5010210;28;20451;-80
2022/10/24 00:54:57;;;;;;;0.10;0.10;;;13.50;99.90;;;;;;5010272;28;20448;-82
2022/10/24 00:57:39;;;;;;;0.10;0.10;;;13.60;99.90;;;;;;5003062;28;20491;-80
2022/10/24 01:00:13;;;;;;;0.10;0.10;;;13.60;99.90;;;;;;4995289;28;20491;-81
2022/10/24 01:02:39;;;;;;;0.10;0.10;;;13.60;99.90;;;;;;5009022;28;20438;-80
2022/10/24 01:05:06;;;;;;;0.10;0.10;;;13.60;99.90;;;;;;4991839;28;20435;-80
2022/10/24 01:07:46;;;;;;;0.10;0.10;;;13.60;99.90;;;;;;5007946;28;20559;-80
2022/10/24 01:10:40;;;;;;;0.10;0.10;;;13.60;99.90;;;;;;4990962;28;20496;-81
2022/10/24 01:13:32;;;;;;;0.10;0.10;;;13.60;99.90;;;;;;4995913;28;20492;-81
2022/10/24 01:16:11;;;;;;;0.10;0.10;;;13.70;99.90;;;;;;5010500;28;20443;-80
2022/10/24 01:18:58;;;;;;;0.10;0.10;;;13.70;99.90;;;;;;5002565;28;20544;-79
2022/10/24 01:21:34;;;;;;;0.10;0.10;;;13.70;99.90;;;;;;5009517;28;20469;-80
2022/10/24 01:24:09;;;;;;;0.10;0.10;;;13.70;99.90;;;;;;5009387;28;20438;-81
2022/10/24 01:27:10;;;;;;;0.10;0.10;;;13.70;99.90;;;;;;5008845;28;20946;-80
2022/10/24 01:29:54;;;;;;;0.10;0.10;;;13.70;99.90;;;;;;4999701;28;20440;-80
2022/10/24 01:32:39;;;;;;;0.10;0.10;;;13.60;99.90;;;;;;5008039;28;20484;-80
2022/10/24 01:35:34;;;;;;;0.10;0.10;;;13.60;99.90;;;;;;5002856;28;20453;-80
2022/10/24 01:38:12;;;;;;;0.10;0.10;;;13.60;99.90;;;;;;5003192;28;20557;-80
2022/10/24 01:40:44;;;;;;;0.10;0.10;;;13.60;99.90;;;;;;5003677;28;20466;-80
2022/10/24 01:43:12;;;;;;;0.10;0.10;;;13.60;99.90;;;;;;5008528;28;20939;-79
2022/10/24 01:45:42;;;;;;;0.10;0.10;;;13.50;99.90;;;;;;5001807;28;20478;-79
2022/10/24 01:48:12;;;;;;;0.10;0.10;;;13.50;99.90;;;;;;4993399;28;20975;-80
2022/10/24 01:50:40;;;;;;;0.10;0.10;;;13.50;99.90;;;;;;5007641;28;20501;-80
2022/10/24 01:53:08;;;;;;;0.10;0.10;;;13.50;99.90;;;;;;5008028;28;20995;-79
2022/10/24 01:55:33;;;;;;;0.10;0.10;;;13.40;99.90;;;;;;5001583;28;20468;-80
2022/10/24 01:57:59;;;;;;;0.10;0.10;;;13.50;99.90;;;;;;5000085;28;20521;-80
2022/10/24 02:00:25;;;;;;;0.10;0.10;;;13.50;99.90;;;;;;4998864;28;20223;-80
2022/10/24 02:02:57;;;;;;;0.10;0.10;;;13.40;99.90;;;;;;4990378;28;20220;-81
2022/10/24 02:05:46;;;;;;;0.20;0.20;;;13.40;99.90;;;;;;5008641;28;20197;-78
2022/10/24 02:08:18;;;;;;;0.10;0.10;;;13.50;99.90;;;;;;5000697;28;20533;-81
2022/10/24 02:10:54;;;;;;;0.10;0.10;;;13.60;99.90;;;;;;4984044;28;20451;-81
2022/10/24 02:13:27;;;;;;;0.10;0.10;;;13.50;99.90;;;;;;4999922;28;20463;-81
2022/10/24 02:15:58;;;;;;;0.20;0.20;;;13.50;99.90;;;;;;4986347;28;20435;-79
2022/10/24 02:18:23;;;;;;;0.30;0.30;;;13.50;99.90;;;;;;5000424;28;20451;-79
2022/10/24 02:21:05;;;;;;;0.10;0.10;;;13.50;99.90;;;;;;5008471;28;20544;-80
2022/10/24 02:23:43;;;;;;;0.20;0.20;;;13.50;99.90;;;;;;4990169;28;20185;-80
2022/10/24 02:26:15;;;;;;;0.10;0.10;;;13.50;99.90;;;;;;4984813;28;20458;-79
2022/10/24 02:28:44;;;;;;;0.10;0.10;;;13.50;99.90;;;;;;4982363;28;20493;-80
2022/10/24 02:31:22;;;;;;;0.10;0.10;;;13.50;99.90;;;;;;4991791;28;20443;-80
2022/10/24 02:33:49;;;;;;;0.20;0.20;;;13.50;99.90;;;;;;4996318;28;21057;-80
2022/10/24 02:36:18;;;;;;;0.10;0.10;;;13.50;99.90;;;;;;5005363;28;20475;-80
2022/10/24 02:38:47;;;;;;;0.10;0.10;;;13.50;99.90;;;;;;4997356;28;20521;-80
2022/10/24 02:41:19;;;;;;;0.10;0.10;;;13.40;99.90;;;;;;5003491;28;20471;-80
2022/10/24 02:43:45;;;;;;;0.10;0.10;;;13.40;99.90;;;;;;4989001;28;20796;-80
2022/10/24 02:46:13;;;;;;;0.10;0.10;;;13.40;99.90;;;;;;4986639;28;20465;-80
2022/10/24 02:48:43;;;;;;;0.10;0.10;;;13.40;99.90;;;;;;4989961;28;20944;-81
2022/10/24 02:51:08;;;;;;;0.10;0.10;;;13.40;99.90;;;;;;5003803;28;20451;-81
2022/10/24 02:53:35;;;;;;;0.10;0.10;;;13.40;99.90;;;;;;4983403;28;20460;-80
2022/10/24 02:56:01;;;;;;;0.10;0.10;;;13.40;99.90;;;;;;5005701;28;20652;-79
2022/10/24 02:58:27;;;;;;;0.10;0.10;;;13.40;99.90;;;;;;4987760;28;20525;-80
2022/10/24 03:00:52;;;;;;;0.10;0.10;;;13.50;99.90;;;;;;5003271;28;21510;-80
2022/10/24 03:03:18;;;;;;;0.20;0.20;;;13.40;99.90;;;;;;5007338;28;20211;-81
2022/10/24 03:05:43;;;;;;;0.20;0.20;;;13.40;99.90;;;;;;4995899;28;20221;-81
2022/10/24 03:08:09;;;;;;;0.20;0.20;;;13.30;99.90;;;;;;5002032;28;20193;-80
2022/10/24 03:10:34;;;;;;;0.10;0.10;;;13.30;99.90;;;;;;4992159;28;20184;-81
2022/10/24 03:13:00;;;;;;;0.20;0.20;;;13.30;99.90;;;;;;5003767;28;20185;-80
2022/10/24 03:15:25;;;;;;;0.10;0.10;;;13.30;99.90;;;;;;4990080;28;20197;-80
2022/10/24 03:17:51;;;;;;;0.10;0.10;;;13.30;99.90;;;;;;5004953;28;20188;-80
2022/10/24 03:20:16;;;;;;;0.10;0.10;;;13.30;99.90;;;;;;4997796;28;20929;-80
2022/10/24 03:22:42;;;;;;;0.13;0.13;;;13.30;99.90;;;;;;5001667;28;20192;-80
2022/10/24 03:25:10;;;;;;;0.10;0.10;;;13.30;99.90;;;;;;5006412;28;20188;-80
2022/10/24 03:27:35;;;;;;;0.10;0.10;;;13.30;99.90;;;;;;5003019;28;20180;-80
2022/10/24 03:30:01;;;;;;;0.10;0.10;;;13.30;99.90;;;;;;5005944;28;20498;-80
2022/10/24 03:32:27;;;;;;;0.10;0.10;;;13.40;99.90;;;;;;5005026;28;20184;-80
2022/10/24 03:34:52;;;;;;;0.10;0.10;;;13.30;99.90;;;;;;5006681;28;20216;-81
2022/10/24 03:37:18;;;;;;;0.10;0.10;;;13.30;99.90;;;;;;5007563;28;20224;-81
2022/10/24 03:39:44;;;;;;;0.17;0.17;;;13.30;99.90;;;;;;5007046;28;20228;-80
2022/10/24 03:42:09;;;;;;;0.10;0.10;;;13.30;99.90;;;;;;5007729;28;20203;-80
2022/10/24 03:44:35;;;;;;;0.10;0.10;;;13.30;99.90;;;;;;4999048;28;20546;-81
2022/10/24 03:47:01;;;;;;;0.10;0.10;;;13.30;99.90;;;;;;4993475;28;20239;-80
2022/10/24 03:49:26;;;;;;;0.10;0.10;;;13.20;99.90;;;;;;4987044;28;20283;-81
2022/10/24 03:51:52;;;;;;;0.10;0.10;;;13.30;99.90;;;;;;5004135;28;21207;-80
2022/10/24 03:54:17;;;;;;;0.10;0.10;;;13.20;99.90;;;;;;4998587;28;20187;-80
2022/10/24 03:56:44;;;;;;;0.10;0.10;;;13.20;99.90;;;;;;5001018;28;20185;-80
2022/10/24 03:59:09;;;;;;;0.10;0.10;;;13.20;99.90;;;;;;5006103;28;20224;-80
2022/10/24 04:01:35;;;;;;;0.10;0.10;;;13.10;99.90;;;;;;5005954;28;20507;-80
2022/10/24 04:04:02;;;;;;;0.10;0.10;;;13.10;99.90;;;;;;5006913;28;20207;-81
2022/10/24 04:06:27;;;;;;;0.10;0.10;;;13.10;99.90;;;;;;4986449;28;20188;-81
2022/10/24 04:08:53;;;;;;;0.10;0.10;;;13.10;99.90;;;;;;5004021;28;20499;-81
2022/10/24 04:11:18;;;;;;;0.10;0.10;;;13.10;99.90;;;;;;5000606;28;20236;-80
2022/10/24 04:13:44;;;;;;;0.20;0.20;;;13.10;99.90;;;;;;4997797;28;20676;-80
2022/10/24 04:16:09;;;;;;;0.10;0.10;;;13.10;99.90;;;;;;4987187;28;20208;-81
2022/10/24 04:18:35;;;;;;;0.10;0.10;;;13.10;99.90;;;;;;5002364;28;20293;-81
2022/10/24 04:21:01;;;;;;;0.10;0.10;;;13.00;99.90;;;;;;5000913;28;20181;-80
2022/10/24 04:23:26;;;;;;;0.20;0.20;;;13.00;99.90;;;;;;5002664;28;20239;-80
2022/10/24 04:25:52;;;;;;;0.30;0.30;;;13.00;99.90;;;;;;5007853;28;20189;-81
2022/10/24 04:28:18;;;;;;;0.10;0.10;;;13.00;99.90;;;;;;5005744;28;20201;-80
2022/10/24 04:30:43;;;;;;;0.20;0.20;;;13.00;99.90;;;;;;5005317;28;20585;-80
2022/10/24 04:33:09;;;;;;;0.10;0.10;;;12.90;99.90;;;;;;5005634;28;20274;-79
2022/10/24 04:35:35;;;;;;;0.20;0.20;;;12.90;99.90;;;;;;5005626;28;20271;-81
2022/10/24 04:38:00;;;;;;;0.10;0.10;;;12.90;99.90;;;;;;4992459;28;20478;-81
2022/10/24 04:40:26;;;;;;;0.10;0.10;;;12.90;99.90;;;;;;5005114;28;20238;-81
2022/10/24 04:42:51;;;;;;;0.20;0.20;;;12.90;99.90;;;;;;4985222;28;20188;-80
2022/10/24 04:45:17;;;;;;;0.20;0.20;;;12.90;99.90;;;;;;4989495;28;20683;-82
2022/10/24 04:47:43;;;;;;;0.10;0.10;;;12.90;99.90;;;;;;5002263;28;20230;-80
2022/10/24 04:50:08;;;;;;;0.10;0.10;;;12.90;99.90;;;;;;5005510;28;20567;-80
2022/10/24 04:52:34;;;;;;;0.10;0.10;;;12.90;99.90;;;;;;4991685;28;20536;-80
2022/10/24 04:54:59;;;;;;;0.20;0.20;;;12.90;99.90;;;;;;5002445;28;20192;-82
2022/10/24 04:57:25;;;;;;;0.10;0.10;;;12.90;99.90;;;;;;4984279;28;20200;-81
2022/10/24 04:59:50;;;;;;;0.10;0.10;;;12.90;99.90;;;;;;4997855;28;20306;-81
2022/10/24 05:02:16;;;;;;;0.10;0.10;;;12.90;99.90;;;;;;4993822;28;20312;-80
2022/10/24 05:04:41;;;;;;;0.20;0.20;;;12.90;99.90;;;;;;4996637;28;20535;-80
2022/10/24 05:07:07;;;;;;;0.20;0.20;;;12.90;99.90;;;;;;5004230;28;20235;-81
2022/10/24 05:09:32;;;;;;;0.20;0.20;;;12.90;99.90;;;;;;4985448;28;20192;-81
2022/10/24 05:11:58;;;;;;;0.20;0.20;;;12.90;99.90;;;;;;5004440;28;20703;-80
2022/10/24 05:14:24;;;;;;;0.23;0.23;;;12.90;99.90;;;;;;5004751;28;20751;-80
2022/10/24 05:16:49;;;;;;;0.20;0.20;;;12.90;99.90;;;;;;4988204;28;20251;-80
2022/10/24 05:19:16;;;;;;;0.20;0.20;;;12.80;99.90;;;;;;5009218;28;20222;-81
2022/10/24 05:21:42;;;;;;;0.10;0.10;;;12.80;99.90;;;;;;5005703;28;20254;-81
2022/10/24 05:24:08;;;;;;;0.20;0.20;;;12.80;99.90;;;;;;4996379;28;20455;-81
2022/10/24 05:26:33;;;;;;;0.10;0.10;;;12.80;99.90;;;;;;4986147;28;20525;-80
2022/10/24 05:28:59;;;;;;;0.30;0.30;;;12.80;99.90;;;;;;5001910;28;20892;-79
2022/10/24 05:31:25;;;;;;;0.10;0.10;;;12.80;99.90;;;;;;4993747;28;20196;-79
2022/10/24 05:33:50;;;;;;;0.10;0.10;;;12.80;99.90;;;;;;5006745;28;20610;-80
2022/10/24 05:36:16;;;;;;;0.20;0.20;;;12.70;99.90;;;;;;4992534;28;20458;-79
2022/10/24 05:38:41;;;;;;;0.10;0.10;;;12.70;99.90;;;;;;5007627;28;20228;-80
2022/10/24 05:41:07;;;;;;;0.10;0.10;;;12.70;99.90;;;;;;4990060;28;20275;-79
2022/10/24 05:43:33;;;;;;;0.10;0.10;;;12.70;99.90;;;;;;5006973;28;20188;-80
2022/10/24 05:45:58;;;;;;;0.20;0.20;;;12.70;99.90;;;;;;5006208;28;20597;-79
2022/10/24 05:48:24;;;;;;;0.10;0.10;;;12.70;99.90;;;;;;5007818;28;20204;-80
2022/10/24 05:50:49;;;;;;;0.10;0.10;;;12.70;99.90;;;;;;5003428;28;20193;-79
2022/10/24 05:53:15;;;;;;;0.10;0.10;;;12.70;99.90;;;;;;5011322;28;20199;-79
2022/10/24 05:55:40;;;;;;;0.10;0.10;;;12.70;99.90;;;;;;5003110;28;20195;-78
2022/10/24 05:58:06;;;;;;;0.10;0.10;;;12.70;99.90;;;;;;5005126;28;20366;-79
2022/10/24 06:00:32;;;;;;;0.10;0.10;;;12.70;99.90;;;;;;5002655;28;20250;-80
2022/10/24 06:02:59;;;;;;;0.10;0.10;;;12.70;99.90;;;;;;4992807;28;20659;-80
2022/10/24 06:05:24;;;;;;;0.10;0.10;;;12.70;99.90;;;;;;5002815;28;20773;-80
2022/10/24 06:07:50;;;;;;;0.10;0.10;;;12.70;99.90;;;;;;5008576;28;20927;-80
2022/10/24 06:10:15;;;;;;;0.10;0.10;;;12.70;99.90;;;;;;4988639;28;20215;-80
2022/10/24 06:12:41;;;;;;;0.10;0.10;;;12.80;99.90;;;;;;4991353;28;20298;-81
2022/10/24 06:15:08;;;;;;;0.20;0.20;;;12.80;99.90;;;;;;4991715;28;20234;-80
2022/10/24 06:17:34;;;;;;;0.10;0.10;;;12.80;99.90;;;;;;5007560;28;20284;-80
2022/10/24 06:19:59;;;;;;;0.20;0.20;;;12.80;99.90;;;;;;5005754;28;20601;-80
2022/10/24 06:22:26;;;;;;;0.10;0.10;;;12.80;99.90;;;;;;5007083;28;20470;-81
2022/10/24 06:24:52;;;;;;;0.20;0.20;;;12.80;99.90;;;;;;5004403;28;20180;-80
2022/10/24 06:27:18;;;;;;;0.20;0.20;;;12.80;99.90;;;;;;5006289;28;20439;-80
2022/10/24 06:29:44;;;;;;;0.20;0.20;;;12.80;99.90;;;;;;5007567;28;20219;-81
2022/10/24 06:32:09;;;;;;;0.10;0.10;;;12.80;99.90;;;;;;5003249;28;20817;-80
2022/10/24 06:34:35;;;;;;;0.10;0.10;;;12.90;99.90;;;;;;5001882;28;20939;-81
2022/10/24 06:37:01;;;;;;;0.10;0.10;;;12.90;99.90;;;;;;4985826;28;20711;-80
2022/10/24 06:39:26;;;;;;;0.10;0.10;;;13.00;99.90;;;;;;4992000;28;20224;-81
2022/10/24 06:41:52;;;;;;;0.10;0.10;;;13.00;99.90;;;;;;4989328;28;20787;-79
2022/10/24 06:44:18;;;;;;;0.10;0.10;;;13.00;99.90;;;;;;4988861;28;20571;-79
2022/10/24 06:46:43;;;;;;;0.10;0.10;;;13.00;99.90;;;;;;5006393;28;20180;-79
2022/10/24 06:49:10;;;;;;;0.20;0.20;;;13.00;99.90;;;;;;5004573;28;20271;-80
2022/10/24 06:51:36;;;;;;;0.20;0.20;;;13.00;99.90;;;;;;5005049;28;20195;-80
2022/10/24 06:54:02;;;;;;;0.20;0.20;;;13.00;99.90;;;;;;4986335;28;20453;-80
2022/10/24 06:56:27;;;;;;;0.20;0.20;;;13.00;99.90;;;;;;4989449;28;20196;-80
2022/10/24 06:58:53;;;;;;;0.20;0.20;;;13.00;99.90;;;;;;5001197;28;20661;-80
2022/10/24 07:01:21;;;;;;;0.20;0.20;;;13.00;99.90;;;;;;5008131;28;20728;-80
2022/10/24 07:03:47;;;;;;;0.20;0.20;;;13.00;99.90;;;;;;5001894;28;20191;-81
2022/10/24 07:06:22;;;;;;;0.10;0.10;;;13.00;99.90;;;;;;5005576;28;20451;-80
2022/10/24 07:08:50;;;;;;;0.10;0.10;;;13.00;99.90;;;;;;5007209;28;20823;-80
2022/10/24 07:11:16;;;;;;;0.10;0.10;;;13.00;99.90;;;;;;4989555;28;20454;-79
2022/10/24 07:13:41;;;;;;;0.10;0.10;;;13.00;99.90;;;;;;5007005;28;20443;-80
2022/10/24 07:16:07;;;;;;;0.20;0.20;;;13.00;99.90;;;;;;5006680;28;20225;-79
2022/10/24 07:18:32;;;;;;;0.10;0.10;;;13.10;99.90;;;;;;5003711;28;20222;-79
2022/10/24 07:21:06;;;;;;;0.30;0.30;;;13.00;99.90;;;;;;5006610;28;20196;-81
2022/10/24 07:23:32;;;;;;;0.20;0.20;;;13.10;99.90;;;;;;4990852;28;20196;-80
2022/10/24 07:26:07;;;;;;;0.20;0.20;;;13.20;99.90;;;;;;4994089;28;20456;-79
2022/10/24 07:28:33;;;;;;;0.10;0.10;;;13.40;99.90;;;;;;5005825;28;21002;-80
2022/10/24 07:31:00;;;;;;;0.10;0.10;;;13.50;99.90;;;;;;5004344;28;20535;-79
2022/10/24 07:33:26;;;;;;;0.10;0.10;;;13.60;99.90;;;;;;5007555;28;20498;-80
2022/10/24 07:35:52;;;;;;;0.10;0.10;;;13.80;99.90;;;;;;5006481;28;20915;-79
2022/10/24 07:38:17;;;;;;;0.10;0.10;;;13.90;99.90;;;;;;5004728;28;20467;-79
2022/10/24 07:40:43;;;;;;;0.10;0.10;;;14.10;99.90;;;;;;5007813;28;20191;-80
2022/10/24 07:43:09;;;;;;;0.30;0.30;;;14.10;99.90;;;;;;5003070;28;20506;-80
2022/10/24 07:45:37;;;;;;;0.10;0.10;;;14.20;99.90;;;;;;5008348;28;20623;-80
2022/10/24 07:48:05;;;;;;;0.30;0.30;;;14.30;99.90;;;;;;5009605;28;20779;-80
2022/10/24 07:50:31;;;;;;;0.10;0.10;;;14.40;99.90;;;;;;5008927;28;21005;-80
2022/10/24 07:52:57;;;;;;;0.10;0.10;;;14.50;99.90;;;;;;5006087;28;20503;-80
2022/10/24 07:55:22;;;;;;;0.10;0.10;;;14.60;99.90;;;;;;5007915;28;20478;-78
2022/10/24 07:57:48;;;;;;;0.10;0.10;;;14.70;99.90;;;;;;4997063;28;20195;-79
2022/10/24 08:00:14;;;;;;;0.10;0.10;;;14.80;99.90;;;;;;4999467;28;20277;-79
2022/10/24 08:02:40;;;;;;;0.10;0.10;;;14.80;99.90;;;;;;5006981;28;20279;-80
2022/10/24 08:05:06;;;;;;;0.10;0.10;;;14.90;99.90;;;;;;5008437;28;20526;-80
2022/10/24 08:07:34;;;;;;;0.10;0.10;;;15.00;99.90;;;;;;5002217;28;20449;-78
2022/10/24 08:10:00;;;;;;;0.10;0.10;;;14.90;99.90;;;;;;5008207;28;20541;-77
2022/10/24 08:12:26;;;;;;;0.10;0.10;;;15.00;99.90;;;;;;5005024;28;20542;-83
2022/10/24 08:14:52;;;;;;;0.10;0.10;;;15.10;99.90;;;;;;4993984;28;20223;-81
2022/10/24 08:17:18;;;;;;;0.40;0.40;;;15.20;99.90;;;;;;5007047;28;20239;-78
2022/10/24 08:19:44;;;;;;;0.60;0.60;;;15.30;99.90;;;;;;5003767;28;20501;-82
2022/10/24 08:22:10;;;;;;;0.10;0.10;;;15.40;99.90;;;;;;5006785;28;20519;-81
2022/10/24 08:24:36;;;;;;;0.30;0.30;;;15.60;99.90;;;;;;5000883;28;20207;-83
2022/10/24 08:27:01;;;;;;;0.23;0.23;;;15.70;99.90;;;;;;5001822;28;21172;-82
2022/10/24 08:29:27;;;;;;;0.10;0.10;;;15.80;99.90;;;;;;4997242;28;20203;-79
2022/10/24 08:31:54;;;;;;;0.10;0.10;;;15.90;99.90;;;;;;5000458;28;20645;-81
2022/10/24 08:34:20;;;;;;;0.20;0.20;;;15.90;99.90;;;;;;4995760;28;20195;-81
2022/10/24 08:36:47;;;;;;;0.10;0.10;;;16.10;99.90;;;;;;5005008;28;20467;-82
2022/10/24 08:39:13;;;;;;;0.10;0.10;;;16.10;99.90;;;;;;5001004;28;20484;-83
2022/10/24 08:41:46;;;;;;;0.10;0.10;;;16.30;99.90;;;;;;4988425;28;21089;-86
2022/10/24 08:44:29;;;;;;;0.10;0.10;;;16.40;99.90;;;;;;5006810;28;20212;-85
2022/10/24 08:47:19;;;;;;;0.10;0.10;;;16.60;99.90;;;;;;5010356;28;21237;-84
2022/10/24 08:49:56;;;;;;;0.10;0.10;;;16.60;99.90;;;;;;5004775;28;20463;-85
2022/10/24 08:52:36;;;;;;;0.10;0.10;;;16.60;99.90;;;;;;5005696;28;20493;-83
2022/10/24 08:55:16;;;;;;;0.10;0.10;;;16.70;99.90;;;;;;4995124;28;20448;-83
2022/10/24 08:57:45;;;;;;;0.10;0.10;;;16.80;99.90;;;;;;4995812;28;20518;-85
2022/10/24 09:00:22;;;;;;;0.10;0.10;;;17.00;99.90;;;;;;5008118;28;20574;-85
2022/10/24 09:02:56;;;;;;;0.10;0.10;;;17.20;99.90;;;;;;5001270;28;20451;-86
2022/10/24 09:05:31;;;;;;;0.10;0.10;;;17.40;99.90;;;;;;5002124;28;20525;-85
2022/10/24 09:08:05;;;;;;;0.00;0.00;;;17.40;99.90;;;;;;5005293;28;20474;-86
2022/10/24 09:10:52;;;;;;;0.00;0.00;;;17.30;99.90;;;;;;4994128;28;21108;-85
2022/10/24 09:13:18;;;;;;;0.07;0.07;;;17.60;99.90;;;;;;5005785;28;20438;-84
2022/10/24 09:15:45;;;;;;;0.00;0.00;;;17.60;99.90;;;;;;5008958;28;20442;-84
2022/10/24 09:18:38;;;;;;;0.00;0.00;;;17.80;99.90;;;;;;5010858;28;20188;-84
2022/10/24 09:21:07;;;;;;;0.00;0.00;;;17.80;99.90;;;;;;5006904;28;20454;-84
2022/10/24 09:23:35;;;;;;;0.20;0.20;;;17.80;99.90;;;;;;4974251;28;20436;-85
2022/10/24 09:26:04;;;;;;;0.10;0.10;;;17.70;99.90;;;;;;4991890;28;20443;-84
2022/10/24 09:28:33;;;;;;;0.10;0.10;;;17.50;99.90;;;;;;4990706;28;21372;-85
2022/10/24 09:31:03;;;;;;;0.10;0.10;;;17.80;99.90;;;;;;4994301;28;20446;-85
2022/10/24 09:33:33;;;;;;;0.10;0.10;;;17.80;99.90;;;;;;4987383;28;20810;-86
2022/10/24 09:36:01;;;;;;;0.00;0.00;;;17.40;99.90;;;;;;5005065;28;20453;-85
2022/10/24 09:38:33;;;;;;;0.10;0.10;;;17.20;99.90;;;;;;5009963;28;20523;-86
2022/10/24 09:41:15;;;;;;;0.10;0.10;;;17.10;99.90;;;;;;5008751;28;20452;-84
2022/10/24 09:43:45;;;;;;;0.10;0.10;;;17.10;99.90;;;;;;5007144;28;20943;-85
2022/10/24 09:46:17;;;;;;;0.10;0.10;;;17.20;99.90;;;;;;5008091;28;20526;-84
2022/10/24 09:48:48;;;;;;;0.10;0.10;;;17.80;99.90;;;;;;5003205;28;20958;-85
2022/10/24 09:51:40;;;;;;;0.00;0.00;;;18.00;99.90;;;;;;4990829;28;20517;-85
2022/10/24 09:54:17;;;;;;;0.00;0.00;;;18.50;99.90;;;;;;5007519;28;20443;-84
2022/10/24 09:56:45;;;;;;;0.00;0.00;;;18.90;99.90;;;;;;4996723;28;20467;-86
2022/10/24 09:59:36;;;;;;;0.00;0.00;;;18.90;99.90;;;;;;5011047;28;20565;-85
2022/10/24 10:02:25;;;;;;;0.00;0.00;;;19.20;99.90;;;;;;4986887;28;20547;-85
2022/10/24 10:05:03;;;;;;;0.00;0.00;;;19.50;99.90;;;;;;4999662;28;20806;-86
2022/10/24 10:07:40;;;;;;;0.00;0.00;;;19.50;99.90;;;;;;5009784;28;20827;-85
2022/10/24 10:10:29;;;;;;;0.00;0.00;;;19.30;99.90;;;;;;5008606;28;20561;-84
2022/10/24 10:13:15;;;;;;;0.00;0.00;;;19.70;99.90;;;;;;5004273;28;20440;-84
2022/10/24 10:15:47;;;;;;;0.00;0.00;;;20.00;99.90;;;;;;4999013;28;20443;-85
2022/10/24 10:18:19;;;;;;;0.00;0.00;;;19.80;99.90;;;;;;5010930;28;20447;-84
2022/10/24 10:20:45;;;;;;;0.10;0.10;;;20.00;99.90;;;;;;4991786;28;20486;-85
2022/10/24 10:23:15;;;;;;;0.00;0.00;;;20.10;99.90;;;;;;5005460;28;20443;-79
2022/10/24 10:25:40;;;;;;;0.00;0.00;;;20.00;99.90;;;;;;5007885;28;20443;-78
2022/10/24 10:28:19;;;;;;;0.10;0.10;;;20.20;99.90;;;;;;5010231;28;20437;-79
2022/10/24 10:30:52;;;;;;;0.00;0.00;;;20.60;99.90;;;;;;5004000;28;20928;-78
2022/10/24 10:33:35;;;;;;;0.10;0.10;;;20.50;99.90;;;;;;5006679;28;20936;-78
2022/10/24 10:36:12;;;;;;;0.00;0.00;;;19.80;99.90;;;;;;5008681;28;20450;-79
2022/10/24 10:38:58;;;;;;;0.00;0.00;;;20.10;99.90;;;;;;5010623;28;20923;-78
2022/10/24 10:41:38;;;;;;;0.10;0.10;;;20.30;99.90;;;;;;4989610;28;20463;-79
2022/10/24 10:44:37;;;;;;;0.00;0.00;;;20.50;99.90;;;;;;5004285;28;21104;-79
2022/10/24 10:47:20;;;;;;;0.00;0.00;;;20.90;99.90;;;;;;5003654;28;20477;-79
2022/10/24 10:49:49;;;;;;;0.00;0.00;;;21.00;99.90;;;;;;4988268;28;20529;-78
2022/10/24 10:52:37;;;;;;;0.00;0.00;;;21.70;99.90;;;;;;5006999;28;20489;-79
2022/10/24 10:55:40;;;;;;;0.00;0.00;;;21.90;99.90;;;;;;5009197;28;20447;-78
2022/10/24 10:58:05;;;;;;;0.00;0.00;;;22.00;99.90;;;;;;4995878;28;20494;-79
2022/10/24 11:00:56;;;;;;;0.00;0.00;;;21.70;99.90;;;;;;5005058;28;20541;-79
2022/10/24 11:03:42;;;;;;;0.00;0.00;;;21.00;99.90;;;;;;5004122;28;20192;-80
2022/10/24 11:06:21;;;;;;;0.00;0.00;;;20.40;99.90;;;;;;4981349;28;20676;-79
2022/10/24 11:09:22;;;;;;;0.00;0.00;;;19.70;99.90;;;;;;5005842;28;20443;-80
2022/10/24 11:11:55;;;;;;;0.00;0.00;;;19.50;99.90;;;;;;5005228;28;20792;-80
2022/10/24 11:14:27;;;;;;;0.10;0.10;;;19.70;99.90;;;;;;5004651;28;21104;-79
2022/10/24 11:16:56;;;;;;;0.00;0.00;;;19.40;99.90;;;;;;5008073;28;20534;-80
2022/10/24 11:19:39;;;;;;;0.00;0.00;;;19.20;99.90;;;;;;4987656;28;20506;-79
2022/10/24 11:22:14;;;;;;;0.00;0.00;;;19.00;99.90;;;;;;4987329;28;20431;-79
2022/10/24 11:24:49;;;;;;;0.00;0.00;;;19.20;99.90;;;;;;4992180;28;20450;-79
2022/10/24 11:27:21;;;;;;;0.00;0.00;;;19.30;99.90;;;;;;5003533;28;20446;-78
2022/10/24 11:29:55;;;;;;;0.00;0.00;;;19.20;99.90;;;;;;4990708;28;20498;-79
2022/10/24 11:32:33;;;;;;;0.00;0.00;;;19.80;99.90;;;;;;5008450;28;20465;-78
2022/10/24 11:35:21;;;;;;;0.00;0.00;;;20.50;99.90;;;;;;4992235;28;21379;-78
2022/10/24 11:37:52;;;;;;;0.00;0.00;;;20.00;99.90;;;;;;4985327;28;20530;-79
2022/10/24 11:40:20;;;;;;;0.00;0.00;;;19.70;99.90;;;;;;4991679;28;20484;-79
2022/10/24 11:43:02;;;;;;;0.00;0.00;;;19.20;99.90;;;;;;4973496;28;20495;-78
2022/10/24 11:46:09;;;;;;;0.00;0.00;;;18.90;99.90;;;;;;4988901;28;20451;-79
2022/10/24 11:48:41;;;;;;;0.10;0.10;;;18.40;99.90;;;;;;4987382;28;20450;-79
2022/10/24 11:51:17;;;;;;;0.10;0.10;;;18.20;99.90;;;;;;4970698;28;20510;-79
2022/10/24 11:54:01;;;;;;;0.00;0.00;;;18.10;99.90;;;;;;4969264;28;20440;-79
2022/10/24 11:56:45;;;;;;;0.10;0.10;;;18.10;99.90;;;;;;4972677;28;20484;-79
2022/10/24 11:59:22;;;;;;;0.10;0.10;;;18.10;99.90;;;;;;4984838;28;20491;-79
2022/10/24 12:01:56;;;;;;;0.10;0.10;;;18.10;99.90;;;;;;4978807;28;20563;-79
2022/10/24 12:04:50;;;;;;;0.10;0.10;;;18.00;99.90;;;;;;4963856;28;20452;-79
2022/10/24 12:07:51;;;;;;;0.10;0.10;;;18.00;99.90;;;;;;4982237;28;21019;-80
2022/10/24 12:10:17;;;;;;;0.10;0.10;;;17.80;99.90;;;;;;4980385;28;20530;-79
2022/10/24 12:12:55;;;;;;;0.10;0.10;;;17.80;99.90;;;;;;4983277;28;20539;-79
2022/10/24 12:16:08;;;;;;;0.10;0.10;;;17.70;99.90;;;;;;4987237;28;20211;-80
2022/10/24 12:18:40;;;;;;;0.10;0.10;;;17.60;99.90;;;;;;4928004;28;20566;-79
2022/10/24 12:21:13;;;;;;;0.10;0.10;;;17.60;99.90;;;;;;4968098;28;20514;-79
2022/10/24 12:23:40;;;;;;;0.10;0.10;;;17.60;99.90;;;;;;4969579;28;20479;-80
2022/10/24 12:26:23;;;;;;;0.10;0.10;;;17.60;99.90;;;;;;4981615;28;21167;-79
2022/10/24 12:28:57;;;;;;;0.10;0.10;;;17.60;99.90;;;;;;4986357;28;20447;-79
2022/10/24 12:31:28;;;;;;;0.10;0.10;;;17.60;99.90;;;;;;4984623;28;20444;-79
2022/10/24 12:34:16;;;;;;;0.10;0.10;;;17.50;99.90;;;;;;4972082;28;20946;-79
2022/10/24 12:37:00;;;;;;;0.10;0.10;;;17.50;99.90;;;;;;4987894;28;20478;-79
2022/10/24 12:39:35;;;;;;;0.10;0.10;;;17.40;99.90;;;;;;4998707;28;20487;-79
2022/10/24 12:42:01;;;;;;;0.10;0.10;;;17.20;99.90;;;;;;5004963;28;20445;-79
2022/10/24 12:44:32;;;;;;;0.10;0.10;;;16.90;99.90;;;;;;5001299;28;20431;-79
2022/10/24 12:47:00;;;;;;;0.10;0.10;;;16.90;99.90;;;;;;4984222;28;20279;-79
2022/10/24 12:49:28;;;;;;;0.10;0.10;;;16.90;99.90;;;;;;4989552;28;20934;-79
2022/10/24 12:51:55;;;;;;;0.10;0.10;;;16.90;99.90;;;;;;5000937;28;21213;-79
2022/10/24 12:54:42;;;;;;;0.17;0.17;;;16.90;99.90;;;;;;5009919;28;20513;-79
2022/10/24 12:57:11;;;;;;;0.10;0.10;;;17.00;99.90;;;;;;4994416;28;20442;-79
2022/10/24 12:59:47;;;;;;;0.20;0.20;;;17.10;99.90;;;;;;5011544;28;21055;-79
2022/10/24 13:02:12;;;;;;;0.00;0.00;;;17.10;99.90;;;;;;5009779;28;20449;-79
2022/10/24 13:04:43;;;;;;;0.10;0.10;;;17.10;99.90;;;;;;5006805;28;20782;-80
2022/10/24 13:07:47;;;;;;;0.10;0.10;;;17.20;99.90;;;;;;4990163;28;20196;-79